sensor_id;sensor_type;location;lat;lon;timestamp;pressure;altitude;pressure_sealevel;temperature;humidity
75192;BME280;63771;52.580;9.734;2023-04-15T00:01:19;100567.88;;;6.21;85.19
75192;BME280;63771;52.580;9.734;2023-04-15T00:03:45;100562.50;;;6.18;85.06
75192;BME280;63771;52.580;9.734;2023-04-15T00:06:10;100559.53;;;6.14;85.32
75192;BME280;63771;52.580;9.734;2023-04-15T00:08:36;100555.34;;;6.14;85.39
75192;BME280;63771;52.580;9.734;2023-04-15T00:11:01;100561.94;;;6.12;85.62
75192;BME280;63771;52.580;9.734;2023-04-15T00:13:30;100565.34;;;6.13;85.50
75192;BME280;63771;52.580;9.734;2023-04-15T00:15:55;100567.25;;;6.15;85.38
75192;BME280;63771;52.580;9.734;2023-04-15T00:18:20;100573.84;;;6.13;85.96
75192;BME280;63771;52.580;9.734;2023-04-15T00:20:46;100570.56;;;6.14;85.73
75192;BME280;63771;52.580;9.734;2023-04-15T00:23:12;100565.50;;;6.14;85.69
75192;BME280;63771;52.580;9.734;2023-04-15T00:25:37;100562.81;;;6.13;85.97
75192;BME280;63771;52.580;9.734;2023-04-15T00:28:03;100560.16;;;6.11;86.06
75192;BME280;63771;52.580;9.734;2023-04-15T00:30:28;100560.16;;;6.11;86.88
75192;BME280;63771;52.580;9.734;2023-04-15T00:32:53;100561.19;;;6.13;86.15
75192;BME280;63771;52.580;9.734;2023-04-15T00:35:19;100543.13;;;6.10;86.71
75192;BME280;63771;52.580;9.734;2023-04-15T00:37:44;100547.00;;;6.15;86.55
75192;BME280;63771;52.580;9.734;2023-04-15T00:40:16;100547.31;;;6.18;86.31
75192;BME280;63771;52.580;9.734;2023-04-15T00:42:42;100540.59;;;6.19;86.22
75192;BME280;63771;52.580;9.734;2023-04-15T00:45:09;100539.28;;;6.22;86.19
75192;BME280;63771;52.580;9.734;2023-04-15T00:47:35;100537.50;;;6.21;86.59
75192;BME280;63771;52.580;9.734;2023-04-15T00:50:02;100537.00;;;6.25;86.22
75192;BME280;63771;52.580;9.734;2023-04-15T00:52:27;100539.84;;;6.28;86.51
75192;BME280;63771;52.580;9.734;2023-04-15T00:54:52;100539.84;;;6.28;86.86
75192;BME280;63771;52.580;9.734;2023-04-15T00:57:19;100537.19;;;6.27;87.12
75192;BME280;63771;52.580;9.734;2023-04-15T00:59:45;100530.31;;;6.26;86.93
75192;BME280;63771;52.580;9.734;2023-04-15T01:02:11;100532.69;;;6.24;86.94
75192;BME280;63771;52.580;9.734;2023-04-15T01:04:36;100531.06;;;6.25;86.77
75192;BME280;63771;52.580;9.734;2023-04-15T01:07:02;100526.16;;;6.26;86.86
75192;BME280;63771;52.580;9.734;2023-04-15T01:09:27;100531.50;;;6.30;86.96
75192;BME280;63771;52.580;9.734;2023-04-15T01:11:53;100523.31;;;6.32;86.30
75192;BME280;63771;52.580;9.734;2023-04-15T01:14:18;100524.34;;;6.34;86.73
75192;BME280;63771;52.580;9.734;2023-04-15T01:16:44;100524.91;;;6.32;87.34
75192;BME280;63771;52.580;9.734;2023-04-15T01:19:10;100516.28;;;6.30;86.83
75192;BME280;63771;52.580;9.734;2023-04-15T01:21:36;100525.97;;;6.34;86.95
75192;BME280;63771;52.580;9.734;2023-04-15T01:24:08;100533.44;;;6.32;87.26
75192;BME280;63771;52.580;9.734;2023-04-15T01:26:37;100524.91;;;6.32;87.50
75192;BME280;63771;52.580;9.734;2023-04-15T01:29:03;100530.28;;;6.35;87.34
75192;BME280;63771;52.580;9.734;2023-04-15T01:31:28;100519.28;;;6.34;87.41
75192;BME280;63771;52.580;9.734;2023-04-15T01:33:54;100523.44;;;6.34;87.47
75192;BME280;63771;52.580;9.734;2023-04-15T01:36:19;100515.84;;;6.34;87.71
75192;BME280;63771;52.580;9.734;2023-04-15T01:38:44;100506.75;;;6.36;87.11
75192;BME280;63771;52.580;9.734;2023-04-15T01:41:10;100515.66;;;6.41;86.67
75192;BME280;63771;52.580;9.734;2023-04-15T01:43:35;100506.41;;;6.41;87.07
75192;BME280;63771;52.580;9.734;2023-04-15T01:46:04;100510.00;;;6.43;86.68
75192;BME280;63771;52.580;9.734;2023-04-15T01:48:30;100507.31;;;6.42;86.98
75192;BME280;63771;52.580;9.734;2023-04-15T01:50:57;100504.63;;;6.49;86.53
75192;BME280;63771;52.580;9.734;2023-04-15T01:53:23;100512.69;;;6.45;87.09
75192;BME280;63771;52.580;9.734;2023-04-15T01:55:49;100512.69;;;6.45;87.60
75192;BME280;63771;52.580;9.734;2023-04-15T01:58:14;100511.16;;;6.47;86.87
75192;BME280;63771;52.580;9.734;2023-04-15T02:00:40;100516.53;;;6.50;87.05
75192;BME280;63771;52.580;9.734;2023-04-15T02:03:05;100508.94;;;6.50;87.27
75192;BME280;63771;52.580;9.734;2023-04-15T02:05:31;100511.47;;;6.50;87.04
75192;BME280;63771;52.580;9.734;2023-04-15T02:07:56;100511.47;;;6.50;87.07
75192;BME280;63771;52.580;9.734;2023-04-15T02:10:22;100512.97;;;6.48;87.02
75192;BME280;63771;52.580;9.734;2023-04-15T02:12:47;100501.03;;;6.47;87.07
75192;BME280;63771;52.580;9.734;2023-04-15T02:15:12;100497.78;;;6.48;87.36
75192;BME280;63771;52.580;9.734;2023-04-15T02:17:38;100486.78;;;6.39;87.66
75192;BME280;63771;52.580;9.734;2023-04-15T02:20:04;100489.13;;;6.46;87.48
75192;BME280;63771;52.580;9.734;2023-04-15T02:22:33;100484.22;;;6.47;87.42
75192;BME280;63771;52.580;9.734;2023-04-15T02:24:58;100487.66;;;6.48;87.69
75192;BME280;63771;52.580;9.734;2023-04-15T02:27:23;100485.84;;;6.47;87.85
75192;BME280;63771;52.580;9.734;2023-04-15T02:29:48;100482.56;;;6.48;87.96
75192;BME280;63771;52.580;9.734;2023-04-15T02:32:17;100481.81;;;6.49;87.63
75192;BME280;63771;52.580;9.734;2023-04-15T02:34:42;100480.03;;;6.48;87.65
75192;BME280;63771;52.580;9.734;2023-04-15T02:37:10;100490.91;;;6.47;88.00
75192;BME280;63771;52.580;9.734;2023-04-15T02:39:35;100489.28;;;6.47;88.14
75192;BME280;63771;52.580;9.734;2023-04-15T02:42:01;100483.28;;;6.47;88.14
75192;BME280;63771;52.580;9.734;2023-04-15T02:44:26;100485.84;;;6.47;88.29
75192;BME280;63771;52.580;9.734;2023-04-15T02:46:52;100493.59;;;6.48;88.17
75192;BME280;63771;52.580;9.734;2023-04-15T02:49:22;100489.28;;;6.47;88.56
75192;BME280;63771;52.580;9.734;2023-04-15T02:51:47;100491.66;;;6.46;88.48
75192;BME280;63771;52.580;9.734;2023-04-15T02:54:20;100495.97;;;6.47;89.00
75192;BME280;63771;52.580;9.734;2023-04-15T02:56:49;100494.19;;;6.46;89.14
75192;BME280;63771;52.580;9.734;2023-04-15T02:59:15;100483.91;;;6.44;88.72
75192;BME280;63771;52.580;9.734;2023-04-15T03:01:40;100490.00;;;6.46;89.08
75192;BME280;63771;52.580;9.734;2023-04-15T03:04:06;100493.75;;;6.41;89.47
75192;BME280;63771;52.580;9.734;2023-04-15T03:06:34;100494.50;;;6.40;89.62
75192;BME280;63771;52.580;9.734;2023-04-15T03:09:00;100500.47;;;6.41;90.22
75192;BME280;63771;52.580;9.734;2023-04-15T03:11:26;100496.00;;;6.38;89.78
75192;BME280;63771;52.580;9.734;2023-04-15T03:13:52;100494.25;;;6.37;89.96
75192;BME280;63771;52.580;9.734;2023-04-15T03:16:17;100505.25;;;6.38;90.42
75192;BME280;63771;52.580;9.734;2023-04-15T03:18:42;100495.56;;;6.34;90.93
75192;BME280;63771;52.580;9.734;2023-04-15T03:21:08;100489.75;;;6.35;90.60
75192;BME280;63771;52.580;9.734;2023-04-15T03:23:33;100493.31;;;6.37;90.44
75192;BME280;63771;52.580;9.734;2023-04-15T03:26:02;100491.53;;;6.36;90.84
75192;BME280;63771;52.580;9.734;2023-04-15T03:28:27;100498.25;;;6.35;91.07
75192;BME280;63771;52.580;9.734;2023-04-15T03:30:54;100498.13;;;6.34;91.17
75192;BME280;63771;52.580;9.734;2023-04-15T03:33:19;100494.81;;;6.35;91.12
75192;BME280;63771;52.580;9.734;2023-04-15T03:35:44;100491.53;;;6.36;91.49
75192;BME280;63771;52.580;9.734;2023-04-15T03:38:10;100492.59;;;6.38;91.34
75192;BME280;63771;52.580;9.734;2023-04-15T03:40:36;100485.88;;;6.38;91.43
75192;BME280;63771;52.580;9.734;2023-04-15T03:43:01;100478.72;;;6.34;91.72
75192;BME280;63771;52.580;9.734;2023-04-15T03:45:26;100485.72;;;6.37;91.67
75192;BME280;63771;52.580;9.734;2023-04-15T03:47:52;100492.44;;;6.36;92.01
75192;BME280;63771;52.580;9.734;2023-04-15T03:50:17;100498.38;;;6.37;92.06
75192;BME280;63771;52.580;9.734;2023-04-15T03:52:43;100493.94;;;6.34;92.46
75192;BME280;63771;52.580;9.734;2023-04-15T03:55:09;100503.03;;;6.32;92.31
75192;BME280;63771;52.580;9.734;2023-04-15T03:57:34;100497.06;;;6.32;92.41
75192;BME280;63771;52.580;9.734;2023-04-15T04:00:07;100495.44;;;6.32;92.64
75192;BME280;63771;52.580;9.734;2023-04-15T04:02:36;100483.38;;;6.30;93.00
75192;BME280;63771;52.580;9.734;2023-04-15T04:05:01;100495.13;;;6.29;92.54
75192;BME280;63771;52.580;9.734;2023-04-15T04:07:27;100501.41;;;6.33;92.86
75192;BME280;63771;52.580;9.734;2023-04-15T04:09:52;100495.44;;;6.32;93.15
75192;BME280;63771;52.580;9.734;2023-04-15T04:12:17;100495.44;;;6.32;93.25
75192;BME280;63771;52.580;9.734;2023-04-15T04:14:43;100498.13;;;6.34;93.08
75192;BME280;63771;52.580;9.734;2023-04-15T04:17:08;100495.13;;;6.38;93.06
75192;BME280;63771;52.580;9.734;2023-04-15T04:19:34;100499.31;;;6.37;93.21
75192;BME280;63771;52.580;9.734;2023-04-15T04:21:59;100498.38;;;6.37;93.08
75192;BME280;63771;52.580;9.734;2023-04-15T04:24:24;100500.66;;;6.34;93.73
75192;BME280;63771;52.580;9.734;2023-04-15T04:26:50;100499.75;;;6.33;93.76
75192;BME280;63771;52.580;9.734;2023-04-15T04:29:15;100500.50;;;6.32;94.11
75192;BME280;63771;52.580;9.734;2023-04-15T04:31:41;100505.56;;;6.32;94.40
75192;BME280;63771;52.580;9.734;2023-04-15T04:34:06;100502.28;;;6.33;94.47
75192;BME280;63771;52.580;9.734;2023-04-15T04:36:33;100503.94;;;6.33;94.35
75192;BME280;63771;52.580;9.734;2023-04-15T04:38:58;100501.22;;;6.31;94.35
75192;BME280;63771;52.580;9.734;2023-04-15T04:41:25;100498.88;;;6.33;94.61
75192;BME280;63771;52.580;9.734;2023-04-15T04:43:51;100508.50;;;6.37;94.50
75192;BME280;63771;52.580;9.734;2023-04-15T04:46:16;100509.56;;;6.39;94.47
75192;BME280;63771;52.580;9.734;2023-04-15T04:48:41;100501.66;;;6.36;94.82
75192;BME280;63771;52.580;9.734;2023-04-15T04:51:06;100505.84;;;6.35;94.82
75192;BME280;63771;52.580;9.734;2023-04-15T04:53:32;100500.19;;;6.38;95.17
75192;BME280;63771;52.580;9.734;2023-04-15T04:55:57;100502.44;;;6.35;95.39
75192;BME280;63771;52.580;9.734;2023-04-15T04:58:23;100496.34;;;6.33;95.56
75192;BME280;63771;52.580;9.734;2023-04-15T05:00:48;100494.81;;;6.35;95.47
75192;BME280;63771;52.580;9.734;2023-04-15T05:03:13;100499.13;;;6.36;95.63
75192;BME280;63771;52.580;9.734;2023-04-15T05:05:39;100504.38;;;6.37;95.53
75192;BME280;63771;52.580;9.734;2023-04-15T05:08:06;100501.66;;;6.36;95.47
75192;BME280;63771;52.580;9.734;2023-04-15T05:10:31;100510.31;;;6.38;95.75
75192;BME280;63771;52.580;9.734;2023-04-15T05:12:57;100505.97;;;6.37;95.61
75192;BME280;63771;52.580;9.734;2023-04-15T05:15:22;100507.78;;;6.38;95.93
75192;BME280;63771;52.580;9.734;2023-04-15T05:17:47;100505.25;;;6.38;96.04
75192;BME280;63771;52.580;9.734;2023-04-15T05:20:12;100501.66;;;6.36;95.75
75192;BME280;63771;52.580;9.734;2023-04-15T05:22:38;100510.91;;;6.35;96.05
75192;BME280;63771;52.580;9.734;2023-04-15T05:25:04;100508.25;;;6.34;96.32
75192;BME280;63771;52.580;9.734;2023-04-15T05:27:29;100513.59;;;6.37;96.41
75192;BME280;63771;52.580;9.734;2023-04-15T05:29:54;100512.88;;;6.38;96.21
75192;BME280;63771;52.580;9.734;2023-04-15T05:32:20;100521.94;;;6.36;96.64
75192;BME280;63771;52.580;9.734;2023-04-15T05:34:46;100515.53;;;6.39;96.39
75192;BME280;63771;52.580;9.734;2023-04-15T05:37:11;100510.59;;;6.41;96.51
75192;BME280;63771;52.580;9.734;2023-04-15T05:39:37;100507.19;;;6.40;96.89
75192;BME280;63771;52.580;9.734;2023-04-15T05:42:02;100513.44;;;6.44;96.76
75192;BME280;63771;52.580;9.734;2023-04-15T05:44:29;100514.31;;;6.44;96.98
75192;BME280;63771;52.580;9.734;2023-04-15T05:46:55;100508.50;;;6.45;96.56
75192;BME280;63771;52.580;9.734;2023-04-15T05:49:20;100508.50;;;6.45;96.76
75192;BME280;63771;52.580;9.734;2023-04-15T05:51:46;100518.78;;;6.47;96.73
75192;BME280;63771;52.580;9.734;2023-04-15T05:54:12;100513.72;;;6.47;97.10
75192;BME280;63771;52.580;9.734;2023-04-15T05:56:37;100510.44;;;6.48;97.02
75192;BME280;63771;52.580;9.734;2023-04-15T05:59:02;100507.44;;;6.52;96.67
75192;BME280;63771;52.580;9.734;2023-04-15T06:01:28;100506.72;;;6.53;96.65
75192;BME280;63771;52.580;9.734;2023-04-15T06:03:53;100510.25;;;6.55;96.58
75192;BME280;63771;52.580;9.734;2023-04-15T06:06:18;100508.47;;;6.54;96.95
75192;BME280;63771;52.580;9.734;2023-04-15T06:08:44;100506.09;;;6.56;96.52
75192;BME280;63771;52.580;9.734;2023-04-15T06:11:10;100509.66;;;6.58;96.95
75192;BME280;63771;52.580;9.734;2023-04-15T06:13:35;100505.31;;;6.57;96.62
75192;BME280;63771;52.580;9.734;2023-04-15T06:16:01;100506.97;;;6.56;97.01
75192;BME280;63771;52.580;9.734;2023-04-15T06:18:26;100505.50;;;6.58;96.95
75192;BME280;63771;52.580;9.734;2023-04-15T06:20:51;100509.06;;;6.60;96.74
75192;BME280;63771;52.580;9.734;2023-04-15T06:23:17;100488.47;;;6.57;96.77
75192;BME280;63771;52.580;9.734;2023-04-15T06:25:42;100499.50;;;6.58;96.81
75192;BME280;63771;52.580;9.734;2023-04-15T06:28:08;100501.44;;;6.60;97.17
75192;BME280;63771;52.580;9.734;2023-04-15T06:30:33;100484.03;;;6.54;97.07
75192;BME280;63771;52.580;9.734;2023-04-15T06:33:00;100494.44;;;6.58;97.55
75192;BME280;63771;52.580;9.734;2023-04-15T06:35:25;100493.56;;;6.57;97.41
75192;BME280;63771;52.580;9.734;2023-04-15T06:37:51;100504.00;;;6.60;97.44
75192;BME280;63771;52.580;9.734;2023-04-15T06:40:16;100502.22;;;6.59;97.76
75192;BME280;63771;52.580;9.734;2023-04-15T06:42:42;100506.97;;;6.56;97.97
75192;BME280;63771;52.580;9.734;2023-04-15T06:45:07;100504.44;;;6.56;98.23
75192;BME280;63771;52.580;9.734;2023-04-15T06:47:33;100512.03;;;6.56;98.15
75192;BME280;63771;52.580;9.734;2023-04-15T06:49:58;100514.72;;;6.58;98.37
75192;BME280;63771;52.580;9.734;2023-04-15T06:52:24;100516.22;;;6.64;98.14
75192;BME280;63771;52.580;9.734;2023-04-15T06:54:49;100513.94;;;6.67;97.76
75192;BME280;63771;52.580;9.734;2023-04-15T06:57:14;100521.84;;;6.70;98.10
75192;BME280;63771;52.580;9.734;2023-04-15T06:59:40;100516.78;;;6.70;97.40
75192;BME280;63771;52.580;9.734;2023-04-15T07:02:07;100517.97;;;6.74;97.87
75192;BME280;63771;52.580;9.734;2023-04-15T07:04:36;100526.47;;;6.74;97.44
75192;BME280;63771;52.580;9.734;2023-04-15T07:07:02;100524.81;;;6.75;97.84
75192;BME280;63771;52.580;9.734;2023-04-15T07:09:27;100535.38;;;6.79;98.33
75192;BME280;63771;52.580;9.734;2023-04-15T07:11:52;100534.00;;;6.83;97.90
75192;BME280;63771;52.580;9.734;2023-04-15T07:14:17;100518.53;;;6.80;98.04
75192;BME280;63771;52.580;9.734;2023-04-15T07:16:43;100535.81;;;6.84;98.05
75192;BME280;63771;52.580;9.734;2023-04-15T07:19:08;100546.22;;;6.87;97.47
75192;BME280;63771;52.580;9.734;2023-04-15T07:21:34;100539.69;;;6.89;97.51
75192;BME280;63771;52.580;9.734;2023-04-15T07:23:59;100530.13;;;6.87;97.87
75192;BME280;63771;52.580;9.734;2023-04-15T07:26:24;100537.88;;;6.88;98.32
75192;BME280;63771;52.580;9.734;2023-04-15T07:28:50;100538.28;;;6.93;98.09
75192;BME280;63771;52.580;9.734;2023-04-15T07:31:15;100537.84;;;6.97;98.14
75192;BME280;63771;52.580;9.734;2023-04-15T07:33:41;100544.69;;;6.98;97.97
75192;BME280;63771;52.580;9.734;2023-04-15T07:36:06;100542.59;;;7.02;97.73
75192;BME280;63771;52.580;9.734;2023-04-15T07:38:32;100547.31;;;7.08;97.04
75192;BME280;63771;52.580;9.734;2023-04-15T07:40:58;100545.22;;;7.13;97.03
75192;BME280;63771;52.580;9.734;2023-04-15T07:43:23;100550.28;;;7.13;97.10
75192;BME280;63771;52.580;9.734;2023-04-15T07:45:49;100541.50;;;7.09;96.93
75192;BME280;63771;52.580;9.734;2023-04-15T07:48:14;100548.50;;;7.12;97.52
75192;BME280;63771;52.580;9.734;2023-04-15T07:50:40;100546.09;;;7.13;97.52
75192;BME280;63771;52.580;9.734;2023-04-15T07:53:05;100544.31;;;7.12;97.86
75192;BME280;63771;52.580;9.734;2023-04-15T07:55:31;100548.19;;;7.17;98.24
75192;BME280;63771;52.580;9.734;2023-04-15T07:57:56;100550.25;;;7.21;97.97
75192;BME280;63771;52.580;9.734;2023-04-15T08:00:22;100554.69;;;7.24;97.53
75192;BME280;63771;52.580;9.734;2023-04-15T08:02:48;100560.06;;;7.27;97.60
75192;BME280;63771;52.580;9.734;2023-04-15T08:05:14;100550.34;;;7.31;97.18
75192;BME280;63771;52.580;9.734;2023-04-15T08:07:39;100542.78;;;7.23;97.56
75192;BME280;63771;52.580;9.734;2023-04-15T08:10:05;100546.50;;;7.26;98.03
75192;BME280;63771;52.580;9.734;2023-04-15T08:12:31;100556.31;;;7.32;97.67
75192;BME280;63771;52.580;9.734;2023-04-15T08:14:56;100549.59;;;7.32;97.67
75192;BME280;63771;52.580;9.734;2023-04-15T08:17:22;100556.44;;;7.33;97.52
75192;BME280;63771;52.580;9.734;2023-04-15T08:19:47;100562.41;;;7.34;97.37
75192;BME280;63771;52.580;9.734;2023-04-15T08:22:13;100562.38;;;7.43;97.06
75192;BME280;63771;52.580;9.734;2023-04-15T08:24:38;100567.44;;;7.43;97.02
75192;BME280;63771;52.580;9.734;2023-04-15T08:27:04;100568.22;;;7.42;96.97
75192;BME280;63771;52.580;9.734;2023-04-15T08:29:33;100571.00;;;7.45;96.85
75192;BME280;63771;52.580;9.734;2023-04-15T08:31:59;100568.94;;;7.41;97.12
75192;BME280;63771;52.580;9.734;2023-04-15T08:34:28;100565.66;;;7.42;96.83
75192;BME280;63771;52.580;9.734;2023-04-15T08:36:54;100571.88;;;7.45;97.08
75192;BME280;63771;52.580;9.734;2023-04-15T08:39:19;100565.50;;;7.40;97.50
75192;BME280;63771;52.580;9.734;2023-04-15T08:41:46;100575.47;;;7.47;97.25
75192;BME280;63771;52.580;9.734;2023-04-15T08:44:13;100577.69;;;7.53;96.71
75192;BME280;63771;52.580;9.734;2023-04-15T08:46:40;100574.81;;;7.58;96.83
75192;BME280;63771;52.580;9.734;2023-04-15T08:49:09;100573.28;;;7.61;96.90
75192;BME280;63771;52.580;9.734;2023-04-15T08:51:34;100574.47;;;7.64;96.67
75192;BME280;63771;52.580;9.734;2023-04-15T08:54:01;100575.97;;;7.62;97.03
75192;BME280;63771;52.580;9.734;2023-04-15T08:56:26;100582.56;;;7.60;96.88
75192;BME280;63771;52.580;9.734;2023-04-15T08:58:52;100578.31;;;7.69;96.73
75192;BME280;63771;52.580;9.734;2023-04-15T09:01:18;100572.91;;;7.75;96.30
75192;BME280;63771;52.580;9.734;2023-04-15T09:03:43;100576.81;;;7.71;97.10
75192;BME280;63771;52.580;9.734;2023-04-15T09:06:10;100576.66;;;7.70;97.06
75192;BME280;63771;52.580;9.734;2023-04-15T09:08:35;100579.75;;;7.76;96.93
75192;BME280;63771;52.580;9.734;2023-04-15T09:11:01;100581.69;;;7.78;96.88
75192;BME280;63771;52.580;9.734;2023-04-15T09:13:27;100596.44;;;7.82;97.07
75192;BME280;63771;52.580;9.734;2023-04-15T09:15:53;100587.59;;;7.88;96.78
75192;BME280;63771;52.580;9.734;2023-04-15T09:18:29;100586.75;;;7.97;96.56
75192;BME280;63771;52.580;9.734;2023-04-15T09:21:03;100588.97;;;8.03;96.25
75192;BME280;63771;52.580;9.734;2023-04-15T09:23:29;100591.50;;;8.03;96.23
75192;BME280;63771;52.580;9.734;2023-04-15T09:25:56;100591.03;;;8.07;96.38
75192;BME280;63771;52.580;9.734;2023-04-15T09:28:24;100598.44;;;8.14;96.21
75192;BME280;63771;52.580;9.734;2023-04-15T09:30:54;100592.50;;;8.24;95.71
75192;BME280;63771;52.580;9.734;2023-04-15T09:33:20;100605.38;;;8.25;96.07
75192;BME280;63771;52.580;9.734;2023-04-15T09:35:56;100605.03;;;8.31;95.42
75192;BME280;63771;52.580;9.734;2023-04-15T09:38:23;100598.41;;;8.33;95.08
75192;BME280;63771;52.580;9.734;2023-04-15T09:40:48;100605.28;;;8.34;95.20
75192;BME280;63771;52.580;9.734;2023-04-15T09:43:13;100614.56;;;8.33;95.30
75192;BME280;63771;52.580;9.734;2023-04-15T09:45:50;100607.03;;;8.44;94.75
75192;BME280;63771;52.580;9.734;2023-04-15T09:50:43;100619.31;;;8.39;95.62
75192;BME280;63771;52.580;9.734;2023-04-15T09:53:09;100610.03;;;8.40;95.95
75192;BME280;63771;52.580;9.734;2023-04-15T09:55:38;100612.59;;;8.40;95.84
75192;BME280;63771;52.580;9.734;2023-04-15T09:58:08;100618.09;;;8.44;95.61
75192;BME280;63771;52.580;9.734;2023-04-15T10:00:34;100618.78;;;8.52;95.75
75192;BME280;63771;52.580;9.734;2023-04-15T10:03:02;100618.00;;;8.53;95.50
75192;BME280;63771;52.580;9.734;2023-04-15T10:05:30;100625.28;;;8.58;95.69
75192;BME280;63771;52.580;9.734;2023-04-15T10:07:56;100630.50;;;8.60;95.72
75192;BME280;63771;52.580;9.734;2023-04-15T10:10:21;100625.16;;;8.57;95.79
75192;BME280;63771;52.580;9.734;2023-04-15T10:12:48;100632.28;;;8.61;95.79
75192;BME280;63771;52.580;9.734;2023-04-15T10:15:15;100627.13;;;8.70;95.24
75192;BME280;63771;52.580;9.734;2023-04-15T10:17:43;100632.19;;;8.70;95.27
75192;BME280;63771;52.580;9.734;2023-04-15T10:20:09;100629.28;;;8.75;95.69
75192;BME280;63771;52.580;9.734;2023-04-15T10:22:35;100623.31;;;8.75;95.06
75192;BME280;63771;52.580;9.734;2023-04-15T10:25:01;100628.75;;;8.69;95.17
75192;BME280;63771;52.580;9.734;2023-04-15T10:27:28;100625.22;;;8.67;95.25
75192;BME280;63771;52.580;9.734;2023-04-15T10:29:55;100624.69;;;8.71;95.36
75192;BME280;63771;52.580;9.734;2023-04-15T10:32:23;100615.28;;;8.70;95.77
75192;BME280;63771;52.580;9.734;2023-04-15T10:34:49;100628.00;;;8.70;95.96
75192;BME280;63771;52.580;9.734;2023-04-15T10:37:21;100621.66;;;8.75;95.78
75192;BME280;63771;52.580;9.734;2023-04-15T10:39:46;100623.19;;;8.73;96.01
75192;BME280;63771;52.580;9.734;2023-04-15T10:42:14;100628.03;;;8.80;95.32
75192;BME280;63771;52.580;9.734;2023-04-15T10:44:48;100627.44;;;8.83;95.81
75192;BME280;63771;52.580;9.734;2023-04-15T10:47:18;100623.66;;;8.88;95.30
75192;BME280;63771;52.580;9.734;2023-04-15T10:49:58;100629.22;;;8.84;95.66
75192;BME280;63771;52.580;9.734;2023-04-15T10:52:25;100633.81;;;8.88;95.24
75192;BME280;63771;52.580;9.734;2023-04-15T10:57:40;100636.25;;;8.97;95.73
75192;BME280;63771;52.580;9.734;2023-04-15T11:00:17;100638.81;;;9.07;94.93
75192;BME280;63771;52.580;9.734;2023-04-15T11:02:47;100638.41;;;9.02;95.08
75192;BME280;63771;52.580;9.734;2023-04-15T11:05:14;100639.34;;;9.13;94.65
75192;BME280;63771;52.580;9.734;2023-04-15T11:13:14;100656.19;;;8.92;96.05
75192;BME280;63771;52.580;9.734;2023-04-15T11:15:45;100651.50;;;8.97;95.24
75192;BME280;63771;52.580;9.734;2023-04-15T11:18:21;100639.31;;;9.03;95.11
75192;BME280;63771;52.580;9.734;2023-04-15T11:20:52;100652.19;;;9.04;95.45
75192;BME280;63771;52.580;9.734;2023-04-15T11:23:27;100659.34;;;9.08;94.98
75192;BME280;63771;52.580;9.734;2023-04-15T11:25:57;100665.69;;;9.03;95.86
75192;BME280;63771;52.580;9.734;2023-04-15T11:28:27;100658.41;;;9.08;95.51
75192;BME280;63771;52.580;9.734;2023-04-15T11:30:53;100667.91;;;9.19;95.08
75192;BME280;63771;52.580;9.734;2023-04-15T11:33:20;100666.09;;;9.18;95.18
75192;BME280;63771;52.580;9.734;2023-04-15T11:35:46;100669.81;;;9.22;94.93
75192;BME280;63771;52.580;9.734;2023-04-15T11:38:13;100670.72;;;9.32;94.20
75192;BME280;63771;52.580;9.734;2023-04-15T11:40:39;100673.66;;;9.37;94.55
75192;BME280;63771;52.580;9.734;2023-04-15T11:43:10;100673.78;;;9.38;94.73
75192;BME280;63771;52.580;9.734;2023-04-15T11:48:15;100685.91;;;9.41;95.67
75192;BME280;63771;52.580;9.734;2023-04-15T11:50:41;100681.47;;;9.59;94.88
75192;BME280;63771;52.580;9.734;2023-04-15T11:53:08;100685.78;;;9.60;93.83
75192;BME280;63771;52.580;9.734;2023-04-15T11:55:41;100691.56;;;9.67;92.76
75192;BME280;63771;52.580;9.734;2023-04-15T12:01:00;100703.78;;;9.72;93.08
75192;BME280;63771;52.580;9.734;2023-04-15T12:03:26;100702.28;;;9.84;92.29
75192;BME280;63771;52.580;9.734;2023-04-15T12:11:40;100704.72;;;9.92;92.63
75192;BME280;63771;52.580;9.734;2023-04-15T12:16:34;100711.31;;;9.90;92.53
75192;BME280;63771;52.580;9.734;2023-04-15T12:19:03;100717.31;;;9.91;92.67
75192;BME280;63771;52.580;9.734;2023-04-15T12:21:33;100719.72;;;9.89;92.43
75192;BME280;63771;52.580;9.734;2023-04-15T12:24:01;100720.38;;;9.97;91.85
75192;BME280;63771;52.580;9.734;2023-04-15T12:26:32;100721.50;;;10.01;92.31
75192;BME280;63771;52.580;9.734;2023-04-15T12:29:02;100726.22;;;10.06;92.51
75192;BME280;63771;52.580;9.734;2023-04-15T12:31:28;100729.06;;;10.09;92.03
75192;BME280;63771;52.580;9.734;2023-04-15T12:33:57;100730.72;;;10.19;91.74
75192;BME280;63771;52.580;9.734;2023-04-15T12:36:23;100728.28;;;10.20;92.23
75192;BME280;63771;52.580;9.734;2023-04-15T12:38:49;100731.25;;;10.25;92.56
75192;BME280;63771;52.580;9.734;2023-04-15T12:41:14;100744.88;;;10.46;91.37
75192;BME280;63771;52.580;9.734;2023-04-15T12:43:40;100745.00;;;10.48;91.24
75192;BME280;63771;52.580;9.734;2023-04-15T12:46:06;100738.63;;;10.53;91.34
75192;BME280;63771;52.580;9.734;2023-04-15T12:48:33;100751.38;;;10.63;89.79
75192;BME280;63771;52.580;9.734;2023-04-15T12:50:58;100755.19;;;10.68;88.60
75192;BME280;63771;52.580;9.734;2023-04-15T12:53:23;100751.88;;;10.69;89.21
75192;BME280;63771;52.580;9.734;2023-04-15T12:55:49;100761.56;;;10.73;88.53
75192;BME280;63771;52.580;9.734;2023-04-15T12:58:14;100761.94;;;10.67;88.88
75192;BME280;63771;52.580;9.734;2023-04-15T13:00:39;100768.44;;;10.64;89.27
75192;BME280;63771;52.580;9.734;2023-04-15T13:03:05;100760.56;;;10.61;89.41
75192;BME280;63771;52.580;9.734;2023-04-15T13:05:30;100771.88;;;10.75;89.27
75192;BME280;63771;52.580;9.734;2023-04-15T13:07:55;100769.72;;;10.79;89.15
75192;BME280;63771;52.580;9.734;2023-04-15T13:10:21;100773.13;;;10.90;86.62
75192;BME280;63771;52.580;9.734;2023-04-15T13:12:48;100764.56;;;11.00;86.10
75192;BME280;63771;52.580;9.734;2023-04-15T13:15:14;100765.59;;;11.02;87.50
75192;BME280;63771;52.580;9.734;2023-04-15T13:17:40;100762.38;;;11.04;88.09
75192;BME280;63771;52.580;9.734;2023-04-15T13:20:05;100757.75;;;11.10;87.46